Time;durP1;ratioP1;P1;durP2;ratioP2;P2;SDS_P1;SDS_P2;PMS_P1;PMS_P2;Temp;Humidity;BMP_temperature;BMP_pressure;BME280_temperature;BME280_humidity;BME280_pressure;Samples;Min_cycle;Max_cycle;Signal;HPM_P1;HPM_P2
2021/03/13 00:01:26;;;;;;;23.95;16.95;;;;;;;3.06;74.46;99509.80;123354;1105;104172;-81
2021/03/13 00:03:53;;;;;;;27.33;18.20;;;;;;;2.95;73.95;99509.91;123335;1105;104472;-80
2021/03/13 00:06:19;;;;;;;27.83;19.60;;;;;;;2.86;74.02;99507.38;123434;1105;104384;-82
2021/03/13 00:08:46;;;;;;;24.23;16.62;;;;;;;2.78;74.25;99510.92;123375;1105;104287;-79
2021/03/13 00:11:27;;;;;;;22.43;18.20;;;;;;;2.67;74.37;99507.53;123233;1105;104929;-79
2021/03/13 00:13:53;;;;;;;24.47;19.70;;;;;;;2.69;74.89;99513.63;123309;1105;104236;-79
2021/03/13 00:16:23;;;;;;;24.18;17.62;;;;;;;2.70;74.99;99510.12;123340;1105;104329;-80
2021/03/13 00:18:50;;;;;;;27.35;19.90;;;;;;;2.74;75.52;99503.09;123063;1105;105143;-80
2021/03/13 00:21:17;;;;;;;22.98;17.73;;;;;;;2.76;75.24;99496.94;123153;1105;104720;-79
2021/03/13 00:23:43;;;;;;;24.50;19.17;;;;;;;2.72;75.22;99496.96;123199;1105;104232;-80
2021/03/13 00:26:10;;;;;;;24.92;19.27;;;;;;;2.67;75.35;99489.99;123266;1105;104377;-80
2021/03/13 00:28:36;;;;;;;24.23;18.57;;;;;;;2.67;75.04;99494.39;123246;1105;105118;-79
2021/03/13 00:31:02;;;;;;;24.27;17.57;;;;;;;2.62;74.43;99490.92;123212;1106;104287;-81
2021/03/13 00:33:34;;;;;;;23.97;16.87;;;;;;;2.58;74.56;99484.81;123254;1106;104313;-80
2021/03/13 00:36:03;;;;;;;27.03;20.33;;;;;;;2.50;75.09;99476.13;123337;1105;104348;-80
2021/03/13 00:38:29;;;;;;;26.37;18.65;;;;;;;2.46;75.35;99480.52;123095;1105;104319;-82
2021/03/13 00:40:55;;;;;;;29.18;19.40;;;;;;;2.44;75.39;99478.79;123182;1105;104942;-80
2021/03/13 00:43:37;;;;;;;27.10;17.90;;;;;;;2.39;75.60;99473.59;123210;1105;104277;-80
2021/03/13 00:46:18;;;;;;;25.55;17.75;;;;;;;2.34;75.25;99468.35;123133;1105;104748;-80
2021/03/13 00:48:45;;;;;;;23.40;16.37;;;;;;;2.30;74.85;99471.03;123127;1105;104354;-81
2021/03/13 00:51:11;;;;;;;22.73;16.03;;;;;;;2.20;75.99;99467.62;123261;1105;104973;-80
2021/03/13 00:53:37;;;;;;;21.20;14.30;;;;;;;2.14;74.80;99465.88;123227;1105;104232;-81
2021/03/13 00:56:04;;;;;;;19.57;15.98;;;;;;;2.10;75.13;99458.91;123255;1105;104341;-79
2021/03/13 00:58:31;;;;;;;22.83;15.10;;;;;;;2.08;76.22;99460.69;123257;1105;104268;-79
2021/03/13 01:00:57;;;;;;;23.90;17.30;;;;;;;2.08;75.55;99457.17;123211;1105;104773;-81
2021/03/13 01:03:24;;;;;;;20.63;16.47;;;;;;;2.07;75.65;99460.70;123095;1105;104415;-79
2021/03/13 01:05:50;;;;;;;17.43;14.40;;;;;;;2.08;75.28;99454.55;123178;1105;104232;-80
2021/03/13 01:08:17;;;;;;;18.73;14.07;;;;;;;2.06;75.51;99456.33;123070;1105;104226;-78
2021/03/13 01:10:49;;;;;;;17.73;13.25;;;;;;;2.00;75.98;99455.48;123230;1105;104370;-80
2021/03/13 01:13:19;;;;;;;18.95;13.45;;;;;;;1.99;76.50;99461.61;123331;1105;104339;-80
2021/03/13 01:15:45;;;;;;;20.80;13.10;;;;;;;1.95;75.26;99451.16;123243;1105;104242;-84
2021/03/13 01:18:12;;;;;;;24.47;15.03;;;;;;;1.99;75.49;99455.50;123122;1105;104329;-80
2021/03/13 01:20:40;;;;;;;21.52;14.20;;;;;;;2.03;76.05;99457.22;122926;1105;104258;-80
2021/03/13 01:23:07;;;;;;;22.03;13.20;;;;;;;2.06;75.92;99457.19;122802;1105;104255;-80
2021/03/13 01:25:33;;;;;;;18.87;14.47;;;;;;;2.03;75.36;99448.45;122783;1105;104594;-80
2021/03/13 01:27:59;;;;;;;19.75;14.50;;;;;;;1.96;75.15;99443.27;122815;1105;104692;-81
2021/03/13 01:30:41;;;;;;;20.77;15.15;;;;;;;1.99;75.83;99437.98;122745;1106;104270;-81
2021/03/13 01:33:23;;;;;;;20.52;17.17;;;;;;;2.03;75.19;99438.84;122673;1105;104357;-80
2021/03/13 01:35:49;;;;;;;22.87;14.35;;;;;;;2.07;75.74;99430.05;122767;1105;104329;-81
2021/03/13 01:38:16;;;;;;;20.97;14.43;;;;;;;2.01;75.35;99416.95;122820;1105;104386;-80
2021/03/13 01:40:42;;;;;;;22.63;15.50;;;;;;;2.03;75.18;99424.81;122913;1105;104230;-80
2021/03/13 01:43:09;;;;;;;27.03;15.57;;;;;;;2.06;75.00;99424.81;122925;1105;104666;-81
2021/03/13 01:45:36;;;;;;;23.22;14.23;;;;;;;2.05;75.07;99416.05;122808;1105;104527;-78
2021/03/13 01:48:04;;;;;;;20.57;15.83;;;;;;;2.00;75.36;99410.84;122709;1105;104242;-79
2021/03/13 01:50:31;;;;;;;19.35;13.85;;;;;;;1.91;74.90;99399.55;122787;1106;104328;-81
2021/03/13 01:52:58;;;;;;;19.98;14.68;;;;;;;1.91;75.31;99407.42;122937;1105;104597;-79
2021/03/13 01:55:24;;;;;;;19.98;14.83;;;;;;;1.93;74.76;99406.53;123491;1105;104349;-80
2021/03/13 01:57:51;;;;;;;19.25;15.03;;;;;;;1.94;75.30;99412.64;123337;1105;104671;-83
2021/03/13 02:00:21;;;;;;;22.42;14.18;;;;;;;1.93;75.53;99410.89;123381;1105;104787;-80
2021/03/13 02:02:47;;;;;;;19.20;13.73;;;;;;;1.93;75.22;99409.16;123207;1105;104229;-78
2021/03/13 02:05:31;;;;;;;20.60;14.63;;;;;;;1.93;74.87;99403.02;123381;1105;105086;-80
2021/03/13 02:08:42;;;;;;;19.17;14.65;;;;;;;1.94;74.70;99407.39;123117;1105;105072;-79
2021/03/13 02:11:45;;;;;;;21.37;14.75;;;;;;;1.87;75.00;99403.05;123160;1105;104238;-80
2021/03/13 02:14:42;;;;;;;20.45;16.02;;;;;;;1.82;75.39;99405.72;122821;1109;104482;-79
2021/03/13 02:17:32;;;;;;;16.87;14.83;;;;;;;1.87;75.25;99397.80;122915;1109;104476;-78
2021/03/13 02:20:19;;;;;;;19.30;14.03;;;;;;;1.88;74.67;99402.17;123035;1106;105012;-79
2021/03/13 02:22:50;;;;;;;17.30;13.83;;;;;;;1.84;74.68;99406.59;123091;1105;104402;-79
2021/03/13 02:25:36;;;;;;;20.63;13.93;;;;;;;1.77;75.14;99395.27;123444;1105;105082;-79
2021/03/13 02:28:11;;;;;;;22.80;15.00;;;;;;;1.78;74.69;99396.12;123094;1105;104265;-80
2021/03/13 02:30:38;;;;;;;24.52;16.00;;;;;;;1.78;75.03;99399.61;123344;1105;104226;-78
2021/03/13 02:33:20;;;;;;;19.92;16.77;;;;;;;1.77;74.89;99399.63;123395;1106;104280;-78
2021/03/13 02:35:54;;;;;;;19.85;13.78;;;;;;;1.74;74.53;99403.14;123300;1105;104235;-79
2021/03/13 02:38:26;;;;;;;17.80;13.43;;;;;;;1.69;74.11;99394.42;123217;1105;104306;-79
2021/03/13 02:40:55;;;;;;;17.87;14.50;;;;;;;1.69;74.05;99383.06;123211;1105;104297;-84
2021/03/13 02:43:22;;;;;;;18.30;14.80;;;;;;;1.68;74.42;99390.08;123284;1105;104310;-82
2021/03/13 02:45:53;;;;;;;20.83;15.23;;;;;;;1.68;74.86;99379.58;123193;1105;104223;-79
2021/03/13 02:48:20;;;;;;;19.93;15.30;;;;;;;1.65;74.25;99380.47;123252;1105;104255;-81
2021/03/13 02:50:47;;;;;;;26.57;17.20;;;;;;;1.75;74.34;99377.78;123122;1105;104427;-79
2021/03/13 02:53:16;;;;;;;23.23;18.17;;;;;;;1.81;74.15;99368.11;123221;1105;104309;-79
2021/03/13 02:55:43;;;;;;;22.82;18.12;;;;;;;1.83;74.38;99363.70;123383;1105;104280;-79
2021/03/13 02:58:10;;;;;;;28.23;18.10;;;;;;;1.83;73.75;99366.33;123186;1106;104402;-79
2021/03/13 03:00:39;;;;;;;27.73;18.53;;;;;;;1.81;74.20;99367.22;123032;1105;104351;-78
2021/03/13 03:03:06;;;;;;;17.67;14.97;;;;;;;1.83;73.62;99370.72;123193;1105;104332;-79
2021/03/13 03:05:34;;;;;;;23.60;17.07;;;;;;;1.83;73.65;99368.09;123056;1105;105044;-79
2021/03/13 03:08:04;;;;;;;25.60;18.80;;;;;;;1.83;73.89;99365.47;123123;1104;104360;-79
2021/03/13 03:10:33;;;;;;;19.85;17.60;;;;;;;1.79;73.76;99361.13;123252;1105;104367;-79
2021/03/13 03:13:01;;;;;;;21.90;16.90;;;;;;;1.79;73.83;99369.86;123231;1106;104392;-79
2021/03/13 03:15:31;;;;;;;26.20;16.05;;;;;;;1.74;73.87;99363.77;123415;1105;104306;-78
2021/03/13 03:18:01;;;;;;;20.55;14.25;;;;;;;1.67;74.04;99355.06;123282;1105;104871;-78
2021/03/13 03:20:31;;;;;;;20.97;16.47;;;;;;;1.63;73.38;99347.24;123366;1105;104345;-77
2021/03/13 03:22:57;;;;;;;18.00;14.45;;;;;;;1.57;74.03;99344.65;123453;1105;104249;-83
2021/03/13 03:25:24;;;;;;;18.57;15.23;;;;;;;1.59;73.51;99338.51;123245;1106;104344;-79
2021/03/13 03:27:51;;;;;;;18.33;14.83;;;;;;;1.61;73.53;99339.38;123242;1105;104516;-79
2021/03/13 03:30:19;;;;;;;19.73;14.07;;;;;;;1.62;74.26;99332.37;123241;1105;105027;-80
2021/03/13 03:32:45;;;;;;;22.30;12.63;;;;;;;1.60;73.91;99324.52;123245;1105;104635;-79
2021/03/13 03:35:14;;;;;;;22.48;17.25;;;;;;;1.69;73.80;99331.43;123328;1105;104226;-79
2021/03/13 03:37:41;;;;;;;26.37;16.47;;;;;;;1.73;73.75;99327.89;123154;1106;104371;-79
2021/03/13 03:40:09;;;;;;;24.23;15.25;;;;;;;1.74;73.55;99332.27;123251;1105;104424;-80
2021/03/13 03:42:41;;;;;;;16.87;14.18;;;;;;;1.74;73.51;99332.27;123365;1105;104444;-79
2021/03/13 03:45:09;;;;;;;17.93;13.87;;;;;;;1.75;73.36;99331.39;123294;1105;104149;-79
2021/03/13 03:47:36;;;;;;;19.87;13.30;;;;;;;1.76;73.75;99333.14;123409;1105;104377;-79
2021/03/13 03:50:04;;;;;;;21.13;14.13;;;;;;;1.80;73.91;99320.84;123380;1105;104376;-80
2021/03/13 03:52:32;;;;;;;20.00;14.50;;;;;;;1.83;73.49;99331.34;123116;1105;104335;-78
2021/03/13 03:55:02;;;;;;;20.82;12.47;;;;;;;1.86;73.41;99322.57;123204;1105;104686;-79
2021/03/13 03:57:30;;;;;;;20.23;15.10;;;;;;;1.90;73.12;99309.39;123306;1106;104286;-80
2021/03/13 03:59:57;;;;;;;19.65;14.40;;;;;;;1.96;73.28;99305.83;123251;1105;104360;-79
2021/03/13 04:02:25;;;;;;;19.15;15.80;;;;;;;1.99;72.99;99311.08;122952;1105;104733;-80
2021/03/13 04:04:53;;;;;;;22.63;16.60;;;;;;;2.00;72.18;99310.20;123233;1105;104239;-79
2021/03/13 04:07:20;;;;;;;20.25;13.88;;;;;;;2.00;72.44;99308.43;123190;1106;104348;-80
2021/03/13 04:09:48;;;;;;;20.97;14.77;;;;;;;2.03;72.41;99291.78;123357;1105;104371;-79
2021/03/13 04:12:18;;;;;;;22.02;16.35;;;;;;;2.05;72.25;99287.36;123260;1105;104500;-78
2021/03/13 04:14:45;;;;;;;24.47;15.60;;;;;;;2.06;72.58;99280.38;123186;1105;104255;-83
2021/03/13 04:17:27;;;;;;;18.07;13.50;;;;;;;2.07;72.69;99280.36;123126;1106;104373;-79
2021/03/13 04:19:58;;;;;;;19.55;13.75;;;;;;;2.08;71.99;99274.23;123198;1105;104373;-81
2021/03/13 04:22:26;;;;;;;21.20;13.83;;;;;;;2.09;71.81;99273.34;123112;1105;104811;-80
2021/03/13 04:24:52;;;;;;;26.97;18.03;;;;;;;2.12;71.88;99268.05;123172;1105;104373;-80
2021/03/13 04:27:21;;;;;;;21.10;16.37;;;;;;;2.15;71.60;99262.75;123241;1105;104329;-81
2021/03/13 04:29:48;;;;;;;20.97;14.83;;;;;;;2.15;71.79;99252.25;123303;1105;104229;-79
2021/03/13 04:32:16;;;;;;;24.97;16.73;;;;;;;2.16;71.52;99246.12;123154;1106;104778;-81
2021/03/13 04:34:45;;;;;;;24.30;14.25;;;;;;;2.16;71.69;99246.12;123230;1105;104158;-80
2021/03/13 04:37:11;;;;;;;19.67;15.70;;;;;;;2.14;71.19;99244.39;123251;1105;104255;-80
2021/03/13 04:39:41;;;;;;;21.17;18.60;;;;;;;2.13;71.96;99245.27;123281;1105;104264;-80
2021/03/13 04:42:08;;;;;;;22.40;16.90;;;;;;;2.15;71.62;99246.14;123193;1105;104304;-80
2021/03/13 04:44:50;;;;;;;20.05;15.35;;;;;;;2.20;71.11;99253.95;122956;1109;104427;-80
2021/03/13 04:47:16;;;;;;;28.47;18.40;;;;;;;2.18;71.10;99246.09;122956;1109;104386;-79
2021/03/13 04:49:43;;;;;;;21.97;18.37;;;;;;;2.18;71.09;99240.84;122972;1108;105056;-79
2021/03/13 04:52:10;;;;;;;28.40;17.27;;;;;;;2.16;71.68;99240.01;122999;1109;104341;-82
2021/03/13 04:54:36;;;;;;;19.97;16.13;;;;;;;2.17;71.45;99237.36;123038;1109;104639;-79
2021/03/13 04:57:03;;;;;;;24.37;19.67;;;;;;;2.20;70.95;99232.94;122818;1109;104441;-79
2021/03/13 04:59:30;;;;;;;27.87;17.70;;;;;;;2.23;70.75;99233.78;123054;1109;104242;-78
2021/03/13 05:02:02;;;;;;;27.55;18.70;;;;;;;2.25;71.25;99228.52;123063;1109;104415;-79
2021/03/13 05:04:29;;;;;;;28.45;18.37;;;;;;;2.28;70.98;99228.46;122961;1109;104329;-79
2021/03/13 05:06:56;;;;;;;27.85;19.65;;;;;;;2.33;70.45;99224.03;122958;1109;104413;-82
2021/03/13 05:09:22;;;;;;;24.27;18.95;;;;;;;2.33;70.72;99209.16;123057;1109;104418;-81
2021/03/13 05:11:49;;;;;;;20.77;15.87;;;;;;;2.35;70.72;99217.02;123135;1109;104497;-78
2021/03/13 05:14:16;;;;;;;26.77;18.57;;;;;;;2.37;71.27;99215.22;123061;1108;105006;-78
2021/03/13 05:16:42;;;;;;;25.07;17.07;;;;;;;2.39;70.89;99209.97;123149;1109;104504;-79
2021/03/13 05:19:09;;;;;;;32.60;17.37;;;;;;;2.43;70.36;99211.67;122956;1109;104386;-78
2021/03/13 05:21:35;;;;;;;29.67;19.65;;;;;;;2.45;71.09;99216.02;123122;1109;104332;-79
2021/03/13 05:24:02;;;;;;;25.45;17.90;;;;;;;2.46;69.50;99208.99;123248;1105;104402;-78
2021/03/13 05:26:28;;;;;;;36.40;18.90;;;;;;;2.47;69.87;99203.72;123247;1105;104786;-78
2021/03/13 05:28:55;;;;;;;29.60;20.90;;;;;;;2.48;69.81;99191.47;123316;1105;104666;-78
2021/03/13 05:31:22;;;;;;;32.65;19.17;;;;;;;2.54;69.27;99199.25;123343;1105;105012;-80
2021/03/13 05:33:59;;;;;;;35.30;20.17;;;;;;;2.58;70.05;99206.20;123307;1105;104456;-78
2021/03/13 05:36:25;;;;;;;30.23;16.20;;;;;;;2.59;69.49;99210.58;123149;1105;104254;-81
2021/03/13 05:38:52;;;;;;;32.27;18.23;;;;;;;2.60;69.82;99208.80;123118;1105;104373;-79
2021/03/13 05:41:19;;;;;;;33.30;17.50;;;;;;;2.67;69.78;99205.22;123234;1105;104713;-79
2021/03/13 05:43:46;;;;;;;26.67;18.57;;;;;;;2.71;69.38;99206.06;123173;1105;104345;-87
2021/03/13 05:46:14;;;;;;;28.00;18.40;;;;;;;2.73;68.60;99207.75;123037;1105;104316;-79
2021/03/13 05:48:45;;;;;;;25.03;19.07;;;;;;;2.77;69.45;99219.10;123129;1105;104382;-81
2021/03/13 05:51:14;;;;;;;20.23;15.15;;;;;;;2.78;69.55;99213.81;123337;1105;104348;-78
2021/03/13 05:53:42;;;;;;;28.73;18.07;;;;;;;2.84;68.91;99210.25;123214;1105;104685;-79
2021/03/13 05:56:09;;;;;;;24.70;16.62;;;;;;;2.87;69.27;99225.13;123334;1105;104383;-78
2021/03/13 05:58:37;;;;;;;22.73;16.13;;;;;;;2.87;68.60;99225.13;123142;1105;104255;-80
2021/03/13 06:01:18;;;;;;;22.32;16.40;;;;;;;2.88;68.68;99232.09;123162;1106;104345;-78
2021/03/13 06:03:45;;;;;;;24.52;15.45;;;;;;;2.88;68.50;99232.09;123207;1105;104232;-83
2021/03/13 06:06:13;;;;;;;23.70;15.30;;;;;;;2.92;68.73;99237.31;123012;1106;104293;-79
2021/03/13 06:08:40;;;;;;;22.77;15.17;;;;;;;2.96;68.59;99244.27;123167;1105;104373;-79
2021/03/13 06:11:10;;;;;;;22.67;18.57;;;;;;;3.01;69.01;99245.07;123120;1105;104252;-81
2021/03/13 06:13:36;;;;;;;20.23;15.78;;;;;;;3.08;68.89;99240.59;123125;1105;104309;-81
2021/03/13 06:16:03;;;;;;;24.10;14.83;;;;;;;3.12;68.85;99250.17;123042;1105;104342;-79
2021/03/13 06:19:03;;;;;;;16.82;11.70;;;;;;;3.16;68.36;99251.86;123157;1105;104687;-81
2021/03/13 06:21:40;;;;;;;24.67;14.95;;;;;;;3.28;68.17;99255.19;122978;1106;104278;-79
2021/03/13 06:24:07;;;;;;;24.17;16.07;;;;;;;3.37;67.45;99251.56;123056;1105;105018;-79
2021/03/13 06:27:00;;;;;;;20.70;15.23;;;;;;;3.44;66.75;99261.97;123131;1106;104275;-79
2021/03/13 06:29:41;;;;;;;15.70;12.57;;;;;;;3.53;66.32;99267.98;122769;1109;104415;-80
2021/03/13 06:32:33;;;;;;;22.93;16.30;;;;;;;3.62;66.85;99270.47;122835;1109;104399;-82
2021/03/13 06:35:18;;;;;;;22.40;13.78;;;;;;;3.67;66.03;99269.48;123024;1109;105542;-81
2021/03/13 06:37:46;;;;;;;17.43;13.60;;;;;;;3.76;66.37;99272.86;122858;1109;104633;-86
2021/03/13 06:40:36;;;;;;;19.82;13.48;;;;;;;3.84;66.10;99285.02;122781;1108;104492;-80
2021/03/13 06:43:28;;;;;;;15.95;12.20;;;;;;;3.82;67.31;99284.16;122857;1107;104718;-79
2021/03/13 06:46:08;;;;;;;15.35;12.80;;;;;;;3.80;68.40;99290.38;122877;1109;104670;-79
2021/03/13 06:48:53;;;;;;;19.75;13.25;;;;;;;3.76;69.72;99302.71;122616;1112;104380;-80
2021/03/13 06:51:39;;;;;;;21.13;14.40;;;;;;;3.81;70.13;99298.25;122801;1112;104540;-81
2021/03/13 06:54:11;;;;;;;23.05;13.08;;;;;;;3.82;71.40;99304.37;122622;1112;104424;-80
2021/03/13 06:56:40;;;;;;;17.03;13.50;;;;;;;3.82;72.13;99312.27;122868;1110;104399;-80
2021/03/13 06:59:23;;;;;;;18.40;13.80;;;;;;;3.78;72.08;99313.22;122541;1112;104376;-82
2021/03/13 07:02:01;;;;;;;19.60;13.70;;;;;;;3.78;72.79;99319.34;122890;1112;104454;-83
2021/03/13 07:04:31;;;;;;;20.15;14.18;;;;;;;3.73;73.61;99323.80;122920;1109;104280;-80
2021/03/13 07:07:29;;;;;;;23.30;14.53;;;;;;;3.60;74.83;99316.99;122909;1109;104456;-79
2021/03/13 07:10:07;;;;;;;18.17;14.53;;;;;;;3.50;74.18;99324.17;122970;1109;104817;-81
2021/03/13 07:12:40;;;;;;;17.27;11.68;;;;;;;3.45;75.11;99326.89;123020;1108;105091;-79
2021/03/13 07:15:26;;;;;;;15.50;12.60;;;;;;;3.41;75.83;99334.83;122662;1112;104268;-81
2021/03/13 07:18:01;;;;;;;15.05;12.75;;;;;;;3.40;75.65;99327.82;122727;1112;104453;-84
2021/03/13 07:20:29;;;;;;;18.37;14.53;;;;;;;3.33;76.17;99327.05;122704;1112;104383;-84
2021/03/13 07:22:58;;;;;;;15.88;12.75;;;;;;;3.29;76.55;99325.34;122710;1112;104453;-79
2021/03/13 07:25:26;;;;;;;16.95;11.85;;;;;;;3.25;76.57;99331.55;122647;1112;104303;-81
2021/03/13 07:28:03;;;;;;;15.30;11.37;;;;;;;3.21;76.59;99335.11;122946;1107;104304;-80
2021/03/13 07:30:33;;;;;;;13.93;11.77;;;;;;;3.21;77.46;99330.71;122897;1109;104398;-79
2021/03/13 07:33:14;;;;;;;16.50;11.37;;;;;;;3.14;76.91;99329.92;122605;1112;104898;-79
2021/03/13 07:35:55;;;;;;;9.80;8.73;;;;;;;3.12;77.82;99320.31;122753;1109;104242;-78
2021/03/13 07:38:42;;;;;;;12.67;9.17;;;;;;;3.01;78.78;99315.20;122626;1109;104935;-77
2021/03/13 07:41:10;;;;;;;12.60;10.63;;;;;;;2.94;78.89;99303.89;122576;1109;104406;-78
2021/03/13 07:43:38;;;;;;;10.35;8.00;;;;;;;2.87;80.02;99302.23;122429;1109;104425;-80
2021/03/13 07:46:08;;;;;;;12.85;10.50;;;;;;;2.87;80.02;99304.87;122238;1112;104447;-79
2021/03/13 07:48:36;;;;;;;13.97;10.13;;;;;;;2.89;80.29;99297.81;122273;1109;104424;-79
2021/03/13 07:51:08;;;;;;;15.15;10.85;;;;;;;2.94;79.95;99303.03;122308;1109;104333;-80
2021/03/13 07:53:49;;;;;;;12.30;9.53;;;;;;;2.98;80.39;99300.32;122390;1109;104450;-79
2021/03/13 07:56:16;;;;;;;19.37;12.20;;;;;;;3.07;79.95;99301.12;122431;1108;104444;-79
2021/03/13 07:58:57;;;;;;;9.27;7.67;;;;;;;3.05;80.52;99305.52;122408;1108;104440;-79
2021/03/13 08:01:47;;;;;;;12.40;11.17;;;;;;;3.04;79.98;99315.17;122547;1108;104455;-80
2021/03/13 08:04:37;;;;;;;13.13;10.97;;;;;;;3.04;80.38;99316.91;122879;1105;104357;-81
2021/03/13 08:07:05;;;;;;;8.57;7.77;;;;;;;2.97;80.56;99311.76;122750;1105;104294;-80
2021/03/13 08:09:32;;;;;;;11.97;10.13;;;;;;;2.96;80.56;99322.27;122768;1105;104590;-79
2021/03/13 08:11:59;;;;;;;13.88;9.60;;;;;;;3.03;81.03;99325.72;122757;1105;104351;-82
2021/03/13 08:14:36;;;;;;;12.60;9.37;;;;;;;2.99;81.11;99315.22;122978;1105;104229;-79
2021/03/13 08:17:10;;;;;;;11.68;8.95;;;;;;;3.01;81.41;99316.09;123222;1105;104345;-79
2021/03/13 08:19:39;;;;;;;13.15;9.25;;;;;;;3.04;81.16;99317.80;123276;1105;104547;-79
2021/03/13 08:22:12;;;;;;;12.20;9.03;;;;;;;3.11;81.36;99310.70;123421;1105;104355;-81
2021/03/13 08:24:46;;;;;;;11.67;8.20;;;;;;;3.10;81.04;99312.45;123505;1105;104245;-81
2021/03/13 08:27:32;;;;;;;11.88;9.18;;;;;;;3.15;81.56;99305.36;123505;1105;104306;-78
2021/03/13 08:30:01;;;;;;;12.27;9.77;;;;;;;3.38;80.89;99312.06;123407;1105;104238;-78
2021/03/13 08:33:05;;;;;;;10.20;7.07;;;;;;;3.57;80.52;99310.01;123387;1105;104370;-78
2021/03/13 08:35:48;;;;;;;9.38;8.18;;;;;;;3.72;80.87;99306.30;123409;1105;104374;-79
2021/03/13 08:38:18;;;;;;;12.60;9.20;;;;;;;3.87;80.11;99301.67;123345;1105;105055;-81
2021/03/13 08:40:52;;;;;;;12.85;8.85;;;;;;;4.13;79.71;99299.45;123186;1105;104293;-80
2021/03/13 08:43:36;;;;;;;8.90;7.77;;;;;;;4.34;78.94;99292.92;123260;1106;104296;-80
2021/03/13 08:46:04;;;;;;;8.05;7.30;;;;;;;4.51;78.66;99281.17;123450;1105;104309;-79
2021/03/13 08:48:57;;;;;;;12.30;9.23;;;;;;;4.65;78.89;99294.07;123222;1105;104469;-81
2021/03/13 08:51:24;;;;;;;8.43;7.57;;;;;;;4.80;78.58;99283.22;123130;1105;104415;-80
2021/03/13 08:53:52;;;;;;;8.73;6.83;;;;;;;5.00;78.61;99281.94;123315;1105;104401;-81
2021/03/13 08:56:40;;;;;;;9.15;6.28;;;;;;;5.27;77.79;99272.52;123253;1105;104210;-80
2021/03/13 08:59:14;;;;;;;11.40;7.60;;;;;;;5.49;76.47;99270.27;123261;1105;104223;-80
2021/03/13 09:01:42;;;;;;;5.60;5.10;;;;;;;5.66;76.40;99263.69;123150;1105;104258;-79
2021/03/13 09:04:23;;;;;;;6.40;5.80;;;;;;;5.84;76.30;99257.95;123042;1108;104367;-79
2021/03/13 09:06:49;;;;;;;6.03;5.42;;;;;;;6.45;75.33;99259.91;123111;1109;104242;-82
2021/03/13 09:09:33;;;;;;;8.67;6.57;;;;;;;7.80;70.63;99254.03;122851;1108;104414;-78
2021/03/13 09:12:19;;;;;;;6.92;6.00;;;;;;;8.59;68.23;99261.08;122735;1112;105026;-81
2021/03/13 09:15:04;;;;;;;7.13;6.47;;;;;;;10.27;65.13;99241.06;122622;1112;104519;-80
2021/03/13 09:17:32;;;;;;;6.73;5.07;;;;;;;10.62;60.47;99248.45;122738;1111;104440;-80
2021/03/13 09:20:09;;;;;;;8.93;5.90;;;;;;;9.75;60.28;99246.81;122661;1112;104402;-79
2021/03/13 09:22:41;;;;;;;8.15;6.10;;;;;;;9.14;61.72;99266.09;122526;1112;104399;-79
2021/03/13 09:25:16;;;;;;;9.20;5.70;;;;;;;8.93;64.40;99255.38;122584;1112;104766;-79
2021/03/13 09:27:42;;;;;;;13.60;7.17;;;;;;;8.61;64.08;99260.09;122672;1112;104713;-82
2021/03/13 09:30:21;;;;;;;6.93;5.60;;;;;;;8.62;64.90;99259.16;122659;1111;105755;-79
2021/03/13 09:32:50;;;;;;;8.10;5.90;;;;;;;9.08;64.13;99253.91;122696;1111;104379;-82
2021/03/13 09:35:18;;;;;;;7.50;5.17;;;;;;;8.57;63.65;99260.25;122490;1112;104469;-79
2021/03/13 09:37:50;;;;;;;7.47;5.92;;;;;;;8.18;64.43;99262.47;122549;1112;104497;-79
2021/03/13 09:40:19;;;;;;;24.50;14.73;;;;;;;7.90;64.85;99259.88;122633;1112;104448;-80
2021/03/13 09:42:47;;;;;;;13.93;11.57;;;;;;;7.68;65.75;99265.90;122899;1109;104332;-79
2021/03/13 09:45:19;;;;;;;8.10;6.90;;;;;;;7.62;66.09;99259.94;122879;1109;104556;-79
2021/03/13 09:47:48;;;;;;;7.67;5.53;;;;;;;7.44;66.48;99270.22;123074;1109;104333;-81
2021/03/13 09:50:18;;;;;;;8.83;7.08;;;;;;;7.30;66.66;99259.19;122904;1105;104386;-81
2021/03/13 09:52:49;;;;;;;7.40;6.70;;;;;;;7.29;67.34;99249.50;123084;1105;104290;-80
2021/03/13 09:55:21;;;;;;;5.87;5.37;;;;;;;7.48;67.00;99242.70;122990;1105;104229;-81
2021/03/13 09:57:53;;;;;;;37.87;28.83;;;;;;;7.66;67.01;99243.02;123058;1105;104574;-87
2021/03/13 10:00:25;;;;;;;18.23;12.97;;;;;;;7.63;66.68;99238.69;123138;1106;104251;-80
2021/03/13 10:02:53;;;;;;;21.77;19.17;;;;;;;7.64;66.48;99240.42;123011;1105;104296;-79
2021/03/13 10:05:27;;;;;;;16.67;13.43;;;;;;;7.74;65.43;99237.47;123038;1105;104396;-80
2021/03/13 10:07:54;;;;;;;17.17;14.60;;;;;;;7.80;65.61;99238.13;122942;1105;104265;-80
2021/03/13 10:10:27;;;;;;;15.68;13.58;;;;;;;7.81;66.61;99247.81;122898;1105;104238;-82
2021/03/13 10:12:55;;;;;;;10.15;8.93;;;;;;;8.01;65.94;99243.60;123155;1105;104393;-82
2021/03/13 10:15:24;;;;;;;17.77;14.93;;;;;;;8.04;65.16;99254.13;123003;1105;104238;-80
2021/03/13 10:18:02;;;;;;;10.88;8.53;;;;;;;7.98;65.88;99241.95;123064;1105;104325;-80
2021/03/13 10:20:36;;;;;;;8.18;7.22;;;;;;;7.98;65.71;99247.25;123143;1105;104752;-80
2021/03/13 10:23:18;;;;;;;8.73;7.83;;;;;;;8.03;66.70;99244.42;122743;1105;105117;-80
2021/03/13 10:26:06;;;;;;;9.93;7.45;;;;;;;8.04;66.16;99249.67;122934;1105;104252;-82
2021/03/13 10:28:34;;;;;;;8.10;7.12;;;;;;;8.34;64.70;99243.34;122877;1105;104357;-82
2021/03/13 10:31:19;;;;;;;11.97;7.77;;;;;;;8.66;63.91;99244.88;123142;1106;104332;-83
2021/03/13 10:33:49;;;;;;;5.75;5.15;;;;;;;9.29;60.79;99241.59;122916;1105;104366;-81
2021/03/13 10:36:18;;;;;;;7.80;7.10;;;;;;;9.02;60.72;99230.23;122931;1105;104313;-79
2021/03/13 10:38:45;;;;;;;8.83;6.85;;;;;;;8.83;59.93;99233.59;123257;1105;104322;-80
2021/03/13 10:41:20;;;;;;;13.87;9.83;;;;;;;8.70;60.75;99237.64;123070;1105;104380;-80
2021/03/13 10:43:47;;;;;;;11.87;9.73;;;;;;;8.57;61.80;99236.37;122988;1105;104364;-80
2021/03/13 10:46:17;;;;;;;9.77;7.83;;;;;;;8.51;61.36;99234.81;123033;1105;104683;-80
2021/03/13 10:48:49;;;;;;;9.70;8.70;;;;;;;8.74;61.80;99233.09;123139;1105;104405;-79
2021/03/13 10:51:26;;;;;;;13.33;10.10;;;;;;;8.72;61.65;99225.19;123041;1105;104366;-79
2021/03/13 10:54:20;;;;;;;14.60;11.87;;;;;;;8.59;60.60;99222.13;122792;1109;104495;-80
2021/03/13 10:56:47;;;;;;;9.45;7.17;;;;;;;8.74;60.95;99227.78;122894;1109;104606;-81
2021/03/13 10:59:14;;;;;;;8.17;7.40;;;;;;;8.70;60.76;99217.29;123073;1105;104357;-82
2021/03/13 11:01:45;;;;;;;28.07;20.10;;;;;;;8.73;61.70;99218.08;123264;1105;104344;-81
2021/03/13 11:04:13;;;;;;;8.80;7.20;;;;;;;8.79;59.51;99216.06;123250;1105;104216;-85
2021/03/13 11:06:40;;;;;;;12.70;9.70;;;;;;;8.83;59.45;99217.67;123199;1105;104396;-82
2021/03/13 11:09:12;;;;;;;8.35;7.25;;;;;;;8.94;58.71;99213.74;123159;1105;104428;-80
2021/03/13 11:11:39;;;;;;;9.20;6.03;;;;;;;9.01;59.84;99207.26;123030;1105;104290;-81
2021/03/13 11:14:07;;;;;;;6.75;6.15;;;;;;;9.17;59.82;99204.86;123277;1105;104695;-80
2021/03/13 11:16:37;;;;;;;6.10;5.60;;;;;;;9.26;58.74;99207.15;123071;1105;104332;-81
2021/03/13 11:19:05;;;;;;;7.42;5.22;;;;;;;9.13;58.47;99206.80;123203;1105;104236;-83
2021/03/13 11:21:32;;;;;;;7.30;6.28;;;;;;;9.10;58.89;99204.23;123209;1105;104338;-80
2021/03/13 11:23:59;;;;;;;8.70;5.55;;;;;;;9.10;58.94;99198.92;123081;1105;104331;-81
2021/03/13 11:26:25;;;;;;;19.98;11.70;;;;;;;8.99;59.38;99202.02;123169;1105;105012;-84
2021/03/13 11:28:52;;;;;;;8.08;6.22;;;;;;;8.93;58.78;99204.92;123289;1105;105041;-81
2021/03/13 11:31:19;;;;;;;6.90;5.75;;;;;;;9.02;60.04;99195.72;123131;1105;104342;-80
2021/03/13 11:34:00;;;;;;;6.60;6.10;;;;;;;9.09;59.46;99194.56;123169;1105;104731;-83